Signet Lightning — WDH4885 — position and weather

sailwx.info

Track history (hours):
 
Tides and Currents Weather Stations Pressure Air Temp Water Temp Dewpoint Dewpoint Depression Visibility Wind Speed Wind Dir Waves Ship Positions

Signet Lightning

Owner: Signet Maritime Corporation, Pascagoula, MS. More information available from US FCC via Universal Licensing System and Coast Guard Vessel Documentation Center.

Last reported at 2017-Aug-23 22:55 UTC. Time now 2017-Sep-22 09:59 UTC.
Position N 18°31' W 066°08'.
Warning: this ship's position is 29 days out of date.

Length 40 m; draft 6 m.

Type: Towing. MMSI: 368549000.

Date/timePositionNaut miles runAvg speedWind from/ knotsBaromVisibWave heightAir tempDewpointWater temp
2017-Aug-23 22:55N 18°31' W 066°08'3 7.3
2017-Aug-23 22:30N 18°28' W 066°07'2 0.8
2017-Aug-23 20:10N 18°26' W 066°06'1 8.2
2017-Aug-23 20:00N 18°27' W 066°05'2 2.7
2017-Aug-23 19:23N 18°27' W 066°07'2 3.8
2017-Aug-23 18:59N 18°27' W 066°06'0 0.7
2017-Aug-23 18:30N 18°27' W 066°05'0 0.1
2017-Aug-23 17:42N 18°27' W 066°05'0 0.9
2017-Aug-23 17:30N 18°27' W 066°05'0 0.3
2017-Aug-23 16:59N 18°27' W 066°05'0 0.2
2017-Aug-23 16:30N 18°27' W 066°05'0 0.0
2017-Aug-23 16:00N 18°27' W 066°05'0 0.0
2017-Aug-23 15:30N 18°27' W 066°05'0 0.0
2017-Aug-23 14:57N 18°27' W 066°05'0 0.0
2017-Aug-23 14:21N 18°27' W 066°05'0 0.0
2017-Aug-23 12:51N 18°27' W 066°05'0 0.0
2017-Aug-23 12:15N 18°27' W 066°05'0 0.0
2017-Aug-23 11:27N 18°27' W 066°05'0 0.0
2017-Aug-23 10:42N 18°27' W 066°05'0 0.0
2017-Aug-23 10:30N 18°27' W 066°05'0 0.0
2017-Aug-23 10:00N 18°27' W 066°05'1 1.0
2017-Aug-23 08:36N 18°26' W 066°06'0 0.5
2017-Aug-23 08:30N 18°26' W 066°06'3 5.4
2017-Aug-23 08:00N 18°28' W 066°08'  
Track history (hours):
 
Tides and Currents Weather Stations Pressure Air Temp Water Temp Dewpoint Dewpoint Depression Visibility Wind Speed Wind Dir Waves Ship Positions

Signet Lightning

Owner: Signet Maritime Corporation, Pascagoula, MS. More information available from US FCC via Universal Licensing System and Coast Guard Vessel Documentation Center.

Last reported at 2017-Aug-23 22:55 UTC. Time now 2017-Sep-22 09:59 UTC.
Position N 18°31' W 066°08'.
Warning: this ship's position is 29 days out of date.

Length 40 m; draft 6 m.

Type: Towing. MMSI: 368549000.

Date/timePositionNaut miles runAvg speedWind from/ knotsBaromVisibWave heightAir tempDewpointWater temp
2017-Aug-23 22:55N 18°31' W 066°08'3 7.3
2017-Aug-23 22:30N 18°28' W 066°07'2 0.8
2017-Aug-23 20:10N 18°26' W 066°06'1 8.2
2017-Aug-23 20:00N 18°27' W 066°05'2 2.7
2017-Aug-23 19:23N 18°27' W 066°07'2 3.8
2017-Aug-23 18:59N 18°27' W 066°06'0 0.7
2017-Aug-23 18:30N 18°27' W 066°05'0 0.1
2017-Aug-23 17:42N 18°27' W 066°05'0 0.9
2017-Aug-23 17:30N 18°27' W 066°05'0 0.3
2017-Aug-23 16:59N 18°27' W 066°05'0 0.2
2017-Aug-23 16:30N 18°27' W 066°05'0 0.0
2017-Aug-23 16:00N 18°27' W 066°05'0 0.0
2017-Aug-23 15:30N 18°27' W 066°05'0 0.0
2017-Aug-23 14:57N 18°27' W 066°05'0 0.0
2017-Aug-23 14:21N 18°27' W 066°05'0 0.0
2017-Aug-23 12:51N 18°27' W 066°05'0 0.0
2017-Aug-23 12:15N 18°27' W 066°05'0 0.0
2017-Aug-23 11:27N 18°27' W 066°05'0 0.0
2017-Aug-23 10:42N 18°27' W 066°05'0 0.0
2017-Aug-23 10:30N 18°27' W 066°05'0 0.0
2017-Aug-23 10:00N 18°27' W 066°05'1 1.0
2017-Aug-23 08:36N 18°26' W 066°06'0 0.5
2017-Aug-23 08:30N 18°26' W 066°06'3 5.4
2017-Aug-23 08:00N 18°28' W 066°08'  

Dump ship's entire track history